sensor_id;sensor_type;location;lat;lon;timestamp;P1;durP1;ratioP1;P2;durP2;ratioP2
39188;SDS011;24915;50.858;4.376;2022-09-12T00:00:03;11.18;;;9.75;;
39188;SDS011;24915;50.858;4.376;2022-09-12T00:02:30;13.18;;;9.90;;
39188;SDS011;24915;50.858;4.376;2022-09-12T00:04:56;12.65;;;10.50;;
39188;SDS011;24915;50.858;4.376;2022-09-12T00:07:22;17.65;;;10.90;;
39188;SDS011;24915;50.858;4.376;2022-09-12T00:09:47;12.95;;;10.07;;
39188;SDS011;24915;50.858;4.376;2022-09-12T00:12:13;14.77;;;10.30;;
39188;SDS011;24915;50.858;4.376;2022-09-12T00:14:39;17.65;;;10.10;;
39188;SDS011;24915;50.858;4.376;2022-09-12T00:17:04;14.65;;;9.65;;
39188;SDS011;24915;50.858;4.376;2022-09-12T00:19:30;12.85;;;10.52;;
39188;SDS011;24915;50.858;4.376;2022-09-12T00:21:55;14.70;;;10.40;;
39188;SDS011;24915;50.858;4.376;2022-09-12T00:24:21;16.20;;;10.30;;
39188;SDS011;24915;50.858;4.376;2022-09-12T00:26:47;12.15;;;9.93;;
39188;SDS011;24915;50.858;4.376;2022-09-12T00:29:14;12.57;;;9.55;;
39188;SDS011;24915;50.858;4.376;2022-09-12T00:31:41;11.65;;;9.05;;
39188;SDS011;24915;50.858;4.376;2022-09-12T00:34:08;11.13;;;9.82;;
39188;SDS011;24915;50.858;4.376;2022-09-12T00:36:34;14.07;;;10.02;;
39188;SDS011;24915;50.858;4.376;2022-09-12T00:39:00;12.15;;;9.65;;
39188;SDS011;24915;50.858;4.376;2022-09-12T00:41:31;12.57;;;9.82;;
39188;SDS011;24915;50.858;4.376;2022-09-12T00:44:38;11.95;;;9.52;;
39188;SDS011;24915;50.858;4.376;2022-09-12T00:49:28;12.77;;;9.48;;
39188;SDS011;24915;50.858;4.376;2022-09-12T00:52:15;13.75;;;8.70;;
39188;SDS011;24915;50.858;4.376;2022-09-12T00:54:54;13.82;;;9.63;;
39188;SDS011;24915;50.858;4.376;2022-09-12T00:57:41;14.20;;;10.20;;
39188;SDS011;24915;50.858;4.376;2022-09-12T01:00:16;12.90;;;9.80;;
39188;SDS011;24915;50.858;4.376;2022-09-12T01:02:44;13.35;;;10.05;;
39188;SDS011;24915;50.858;4.376;2022-09-12T01:05:14;10.68;;;9.60;;
39188;SDS011;24915;50.858;4.376;2022-09-12T01:07:40;15.07;;;9.68;;
39188;SDS011;24915;50.858;4.376;2022-09-12T01:10:07;18.75;;;10.40;;
39188;SDS011;24915;50.858;4.376;2022-09-12T01:12:34;15.27;;;10.43;;
39188;SDS011;24915;50.858;4.376;2022-09-12T01:15:03;12.75;;;9.48;;
39188;SDS011;24915;50.858;4.376;2022-09-12T01:17:31;10.43;;;8.98;;
39188;SDS011;24915;50.858;4.376;2022-09-12T01:31:17;14.25;;;9.82;;
39188;SDS011;24915;50.858;4.376;2022-09-12T01:39:15;10.85;;;9.43;;
39188;SDS011;24915;50.858;4.376;2022-09-12T01:42:03;14.68;;;10.52;;
39188;SDS011;24915;50.858;4.376;2022-09-12T01:44:36;14.25;;;10.73;;
39188;SDS011;24915;50.858;4.376;2022-09-12T01:47:21;12.43;;;9.45;;
39188;SDS011;24915;50.858;4.376;2022-09-12T01:50:09;15.10;;;10.65;;
39188;SDS011;24915;50.858;4.376;2022-09-12T01:52:55;12.23;;;9.68;;
39188;SDS011;24915;50.858;4.376;2022-09-12T01:55:35;11.50;;;10.25;;
39188;SDS011;24915;50.858;4.376;2022-09-12T01:58:20;11.40;;;9.80;;
39188;SDS011;24915;50.858;4.376;2022-09-12T02:03:30;11.57;;;8.93;;
39188;SDS011;24915;50.858;4.376;2022-09-12T02:06:00;14.02;;;9.88;;
39188;SDS011;24915;50.858;4.376;2022-09-12T02:08:32;12.38;;;9.25;;
39188;SDS011;24915;50.858;4.376;2022-09-12T02:11:08;12.95;;;9.02;;
39188;SDS011;24915;50.858;4.376;2022-09-12T02:13:43;11.65;;;9.40;;
39188;SDS011;24915;50.858;4.376;2022-09-12T02:16:59;11.00;;;9.40;;
39188;SDS011;24915;50.858;4.376;2022-09-12T02:19:23;12.05;;;9.57;;
39188;SDS011;24915;50.858;4.376;2022-09-12T02:22:00;11.48;;;9.07;;
39188;SDS011;24915;50.858;4.376;2022-09-12T02:24:29;14.35;;;9.07;;
39188;SDS011;24915;50.858;4.376;2022-09-12T02:27:08;11.52;;;9.80;;
39188;SDS011;24915;50.858;4.376;2022-09-12T02:29:39;10.93;;;9.68;;
39188;SDS011;24915;50.858;4.376;2022-09-12T02:32:11;14.02;;;9.80;;
39188;SDS011;24915;50.858;4.376;2022-09-12T02:34:48;11.43;;;9.15;;
39188;SDS011;24915;50.858;4.376;2022-09-12T02:39:53;12.27;;;9.05;;
39188;SDS011;24915;50.858;4.376;2022-09-12T02:42:21;14.32;;;9.30;;
39188;SDS011;24915;50.858;4.376;2022-09-12T02:44:48;10.65;;;9.02;;
39188;SDS011;24915;50.858;4.376;2022-09-12T02:47:19;13.57;;;9.02;;
39188;SDS011;24915;50.858;4.376;2022-09-12T02:49:59;12.20;;;9.20;;
39188;SDS011;24915;50.858;4.376;2022-09-12T02:52:26;10.95;;;9.77;;
39188;SDS011;24915;50.858;4.376;2022-09-12T02:54:53;12.20;;;10.15;;
39188;SDS011;24915;50.858;4.376;2022-09-12T02:57:21;15.00;;;10.25;;
39188;SDS011;24915;50.858;4.376;2022-09-12T02:59:47;13.15;;;9.43;;
39188;SDS011;24915;50.858;4.376;2022-09-12T03:04:57;11.25;;;9.43;;
39188;SDS011;24915;50.858;4.376;2022-09-12T03:16:16;12.43;;;9.35;;
39188;SDS011;24915;50.858;4.376;2022-09-12T03:24:34;10.65;;;9.38;;
39188;SDS011;24915;50.858;4.376;2022-09-12T03:29:38;10.52;;;9.43;;
39188;SDS011;24915;50.858;4.376;2022-09-12T03:32:06;10.65;;;9.48;;
39188;SDS011;24915;50.858;4.376;2022-09-12T03:34:31;13.52;;;9.50;;
39188;SDS011;24915;50.858;4.376;2022-09-12T03:36:57;16.35;;;9.82;;
39188;SDS011;24915;50.858;4.376;2022-09-12T03:39:23;13.07;;;9.30;;
39188;SDS011;24915;50.858;4.376;2022-09-12T03:41:51;13.50;;;9.93;;
39188;SDS011;24915;50.858;4.376;2022-09-12T03:44:17;10.57;;;8.93;;
39188;SDS011;24915;50.858;4.376;2022-09-12T03:46:43;12.68;;;9.35;;
39188;SDS011;24915;50.858;4.376;2022-09-12T03:49:09;13.15;;;8.98;;
39188;SDS011;24915;50.858;4.376;2022-09-12T03:51:35;11.52;;;9.05;;
39188;SDS011;24915;50.858;4.376;2022-09-12T03:54:02;10.27;;;9.18;;
39188;SDS011;24915;50.858;4.376;2022-09-12T03:56:28;11.57;;;9.25;;
39188;SDS011;24915;50.858;4.376;2022-09-12T03:58:54;12.05;;;8.80;;
39188;SDS011;24915;50.858;4.376;2022-09-12T04:01:19;9.88;;;8.88;;
39188;SDS011;24915;50.858;4.376;2022-09-12T04:03:46;11.35;;;8.82;;
39188;SDS011;24915;50.858;4.376;2022-09-12T04:06:14;13.00;;;9.02;;
39188;SDS011;24915;50.858;4.376;2022-09-12T04:08:41;14.05;;;9.40;;
39188;SDS011;24915;50.858;4.376;2022-09-12T04:11:12;12.35;;;9.32;;
39188;SDS011;24915;50.858;4.376;2022-09-12T04:13:40;13.82;;;10.45;;
39188;SDS011;24915;50.858;4.376;2022-09-12T04:16:08;13.35;;;10.30;;
39188;SDS011;24915;50.858;4.376;2022-09-12T04:18:34;15.48;;;9.90;;
39188;SDS011;24915;50.858;4.376;2022-09-12T04:21:04;17.02;;;10.27;;
39188;SDS011;24915;50.858;4.376;2022-09-12T04:23:34;11.43;;;9.25;;
39188;SDS011;24915;50.858;4.376;2022-09-12T04:26:01;13.95;;;10.40;;
39188;SDS011;24915;50.858;4.376;2022-09-12T04:28:30;12.45;;;10.32;;
39188;SDS011;24915;50.858;4.376;2022-09-12T04:31:00;14.13;;;10.70;;
39188;SDS011;24915;50.858;4.376;2022-09-12T04:33:28;12.70;;;10.68;;
39188;SDS011;24915;50.858;4.376;2022-09-12T04:35:53;13.75;;;10.50;;
39188;SDS011;24915;50.858;4.376;2022-09-12T04:38:19;13.00;;;10.90;;
39188;SDS011;24915;50.858;4.376;2022-09-12T04:40:44;14.68;;;11.15;;
39188;SDS011;24915;50.858;4.376;2022-09-12T04:43:10;17.40;;;12.13;;
39188;SDS011;24915;50.858;4.376;2022-09-12T04:45:36;15.05;;;11.60;;
39188;SDS011;24915;50.858;4.376;2022-09-12T04:48:02;17.70;;;11.02;;
39188;SDS011;24915;50.858;4.376;2022-09-12T04:50:28;15.95;;;12.60;;
39188;SDS011;24915;50.858;4.376;2022-09-12T04:52:53;18.00;;;13.00;;
39188;SDS011;24915;50.858;4.376;2022-09-12T04:55:19;15.23;;;11.20;;
39188;SDS011;24915;50.858;4.376;2022-09-12T04:57:46;16.77;;;11.48;;
39188;SDS011;24915;50.858;4.376;2022-09-12T05:00:12;13.65;;;11.90;;
39188;SDS011;24915;50.858;4.376;2022-09-12T05:02:38;20.58;;;12.07;;
39188;SDS011;24915;50.858;4.376;2022-09-12T05:05:05;13.20;;;10.65;;
39188;SDS011;24915;50.858;4.376;2022-09-12T05:07:31;11.90;;;10.40;;
39188;SDS011;24915;50.858;4.376;2022-09-12T05:09:57;15.82;;;10.68;;
39188;SDS011;24915;50.858;4.376;2022-09-12T05:12:24;13.77;;;10.85;;
39188;SDS011;24915;50.858;4.376;2022-09-12T05:14:49;15.18;;;11.15;;
39188;SDS011;24915;50.858;4.376;2022-09-12T05:17:15;16.48;;;11.43;;
39188;SDS011;24915;50.858;4.376;2022-09-12T05:19:41;15.18;;;11.30;;
39188;SDS011;24915;50.858;4.376;2022-09-12T05:22:07;14.18;;;11.30;;
39188;SDS011;24915;50.858;4.376;2022-09-12T05:24:33;17.00;;;11.30;;
39188;SDS011;24915;50.858;4.376;2022-09-12T05:26:59;15.25;;;11.77;;
39188;SDS011;24915;50.858;4.376;2022-09-12T05:29:27;14.80;;;11.15;;
39188;SDS011;24915;50.858;4.376;2022-09-12T05:31:53;15.48;;;10.43;;
39188;SDS011;24915;50.858;4.376;2022-09-12T05:34:19;17.30;;;11.40;;
39188;SDS011;24915;50.858;4.376;2022-09-12T05:36:45;14.10;;;11.25;;
39188;SDS011;24915;50.858;4.376;2022-09-12T05:39:10;15.75;;;12.07;;
39188;SDS011;24915;50.858;4.376;2022-09-12T05:41:36;15.55;;;11.15;;
39188;SDS011;24915;50.858;4.376;2022-09-12T05:44:05;15.25;;;11.07;;
39188;SDS011;24915;50.858;4.376;2022-09-12T05:46:39;14.20;;;11.07;;
39188;SDS011;24915;50.858;4.376;2022-09-12T05:49:07;16.10;;;10.88;;
39188;SDS011;24915;50.858;4.376;2022-09-12T05:51:36;20.58;;;11.43;;
39188;SDS011;24915;50.858;4.376;2022-09-12T05:54:04;14.52;;;11.48;;
39188;SDS011;24915;50.858;4.376;2022-09-12T05:56:33;18.35;;;11.60;;
39188;SDS011;24915;50.858;4.376;2022-09-12T05:59:04;15.00;;;11.43;;
39188;SDS011;24915;50.858;4.376;2022-09-12T06:01:56;18.48;;;10.40;;
39188;SDS011;24915;50.858;4.376;2022-09-12T06:04:21;15.90;;;11.73;;
39188;SDS011;24915;50.858;4.376;2022-09-12T06:06:47;13.93;;;10.68;;
39188;SDS011;24915;50.858;4.376;2022-09-12T06:09:14;13.80;;;11.05;;
39188;SDS011;24915;50.858;4.376;2022-09-12T06:11:40;16.48;;;10.90;;
39188;SDS011;24915;50.858;4.376;2022-09-12T06:14:07;16.23;;;10.35;;
39188;SDS011;24915;50.858;4.376;2022-09-12T06:16:34;22.33;;;11.23;;
39188;SDS011;24915;50.858;4.376;2022-09-12T06:19:02;15.32;;;11.50;;
39188;SDS011;24915;50.858;4.376;2022-09-12T06:21:30;15.20;;;10.05;;
39188;SDS011;24915;50.858;4.376;2022-09-12T06:23:58;12.57;;;9.52;;
39188;SDS011;24915;50.858;4.376;2022-09-12T06:26:23;15.10;;;10.15;;
39188;SDS011;24915;50.858;4.376;2022-09-12T06:28:50;13.80;;;9.48;;
39188;SDS011;24915;50.858;4.376;2022-09-12T06:31:19;13.65;;;9.68;;
39188;SDS011;24915;50.858;4.376;2022-09-12T06:33:50;11.48;;;8.55;;
39188;SDS011;24915;50.858;4.376;2022-09-12T06:36:23;12.35;;;8.57;;
39188;SDS011;24915;50.858;4.376;2022-09-12T06:38:57;12.68;;;8.40;;
39188;SDS011;24915;50.858;4.376;2022-09-12T06:41:25;9.88;;;8.38;;
39188;SDS011;24915;50.858;4.376;2022-09-12T06:43:51;15.88;;;8.90;;
39188;SDS011;24915;50.858;4.376;2022-09-12T06:46:18;11.80;;;8.65;;
39188;SDS011;24915;50.858;4.376;2022-09-12T06:48:45;11.05;;;7.60;;
39188;SDS011;24915;50.858;4.376;2022-09-12T06:51:12;10.80;;;8.13;;
39188;SDS011;24915;50.858;4.376;2022-09-12T06:53:39;8.95;;;8.07;;
39188;SDS011;24915;50.858;4.376;2022-09-12T06:56:06;8.40;;;7.07;;
39188;SDS011;24915;50.858;4.376;2022-09-12T06:58:35;11.13;;;7.80;;
39188;SDS011;24915;50.858;4.376;2022-09-12T07:01:01;9.18;;;8.00;;
39188;SDS011;24915;50.858;4.376;2022-09-12T07:03:29;11.52;;;7.38;;
39188;SDS011;24915;50.858;4.376;2022-09-12T07:05:55;13.30;;;7.20;;
39188;SDS011;24915;50.858;4.376;2022-09-12T07:08:21;15.10;;;7.10;;
39188;SDS011;24915;50.858;4.376;2022-09-12T07:10:48;8.77;;;6.32;;
39188;SDS011;24915;50.858;4.376;2022-09-12T07:13:13;10.73;;;6.95;;
39188;SDS011;24915;50.858;4.376;2022-09-12T07:15:39;8.43;;;6.60;;
39188;SDS011;24915;50.858;4.376;2022-09-12T07:18:05;10.18;;;6.18;;
39188;SDS011;24915;50.858;4.376;2022-09-12T07:20:30;7.22;;;6.20;;
39188;SDS011;24915;50.858;4.376;2022-09-12T07:23:01;9.35;;;6.25;;
39188;SDS011;24915;50.858;4.376;2022-09-12T07:25:27;7.88;;;6.20;;
39188;SDS011;24915;50.858;4.376;2022-09-12T07:27:52;12.50;;;6.35;;
39188;SDS011;24915;50.858;4.376;2022-09-12T07:30:19;8.55;;;5.50;;
39188;SDS011;24915;50.858;4.376;2022-09-12T07:32:46;8.00;;;5.60;;
39188;SDS011;24915;50.858;4.376;2022-09-12T07:35:11;8.30;;;5.35;;
39188;SDS011;24915;50.858;4.376;2022-09-12T07:37:37;8.70;;;6.22;;
39188;SDS011;24915;50.858;4.376;2022-09-12T07:40:04;22.55;;;11.88;;
39188;SDS011;24915;50.858;4.376;2022-09-12T07:42:30;29.05;;;11.52;;
39188;SDS011;24915;50.858;4.376;2022-09-12T07:44:56;68.75;;;22.48;;
39188;SDS011;24915;50.858;4.376;2022-09-12T07:47:21;31.02;;;11.23;;
39188;SDS011;24915;50.858;4.376;2022-09-12T07:49:47;35.80;;;16.30;;
39188;SDS011;24915;50.858;4.376;2022-09-12T07:52:13;21.48;;;10.48;;
39188;SDS011;24915;50.858;4.376;2022-09-12T07:54:38;33.55;;;19.55;;
39188;SDS011;24915;50.858;4.376;2022-09-12T07:57:04;16.33;;;8.75;;
39188;SDS011;24915;50.858;4.376;2022-09-12T07:59:30;21.67;;;12.68;;
39188;SDS011;24915;50.858;4.376;2022-09-12T08:01:55;11.30;;;4.50;;
39188;SDS011;24915;50.858;4.376;2022-09-12T08:04:21;6.03;;;4.43;;
39188;SDS011;24915;50.858;4.376;2022-09-12T08:06:46;6.28;;;3.85;;
39188;SDS011;24915;50.858;4.376;2022-09-12T08:09:12;3.90;;;3.30;;
39188;SDS011;24915;50.858;4.376;2022-09-12T08:11:39;4.88;;;3.60;;
39188;SDS011;24915;50.858;4.376;2022-09-12T08:14:05;17.58;;;6.93;;
39188;SDS011;24915;50.858;4.376;2022-09-12T08:16:31;8.20;;;4.07;;
39188;SDS011;24915;50.858;4.376;2022-09-12T08:18:58;13.68;;;7.85;;
39188;SDS011;24915;50.858;4.376;2022-09-12T08:21:25;6.72;;;3.80;;
39188;SDS011;24915;50.858;4.376;2022-09-12T08:24:02;7.03;;;4.90;;
39188;SDS011;24915;50.858;4.376;2022-09-12T08:26:29;6.10;;;3.33;;
39188;SDS011;24915;50.858;4.376;2022-09-12T08:28:56;4.45;;;3.15;;
39188;SDS011;24915;50.858;4.376;2022-09-12T08:31:22;4.88;;;3.38;;
39188;SDS011;24915;50.858;4.376;2022-09-12T08:33:49;5.00;;;3.58;;
39188;SDS011;24915;50.858;4.376;2022-09-12T08:36:19;7.22;;;3.78;;
39188;SDS011;24915;50.858;4.376;2022-09-12T08:38:50;5.60;;;4.05;;
39188;SDS011;24915;50.858;4.376;2022-09-12T08:41:28;5.47;;;4.00;;
39188;SDS011;24915;50.858;4.376;2022-09-12T08:52:22;3.97;;;3.58;;
39188;SDS011;24915;50.858;4.376;2022-09-12T08:54:53;7.18;;;3.53;;
39188;SDS011;24915;50.858;4.376;2022-09-12T08:57:20;4.53;;;4.00;;
39188;SDS011;24915;50.858;4.376;2022-09-12T08:59:47;5.22;;;3.70;;
39188;SDS011;24915;50.858;4.376;2022-09-12T09:13:45;5.00;;;2.80;;
39188;SDS011;24915;50.858;4.376;2022-09-12T09:16:34;2.92;;;2.60;;
39188;SDS011;24915;50.858;4.376;2022-09-12T09:19:21;6.18;;;3.15;;
39188;SDS011;24915;50.858;4.376;2022-09-12T09:21:53;6.07;;;2.97;;
39188;SDS011;24915;50.858;4.376;2022-09-12T09:24:42;3.25;;;2.60;;
39188;SDS011;24915;50.858;4.376;2022-09-12T09:30:15;8.88;;;2.88;;
39188;SDS011;24915;50.858;4.376;2022-09-12T09:32:43;4.55;;;2.60;;
39188;SDS011;24915;50.858;4.376;2022-09-12T09:35:17;6.53;;;2.80;;
39188;SDS011;24915;50.858;4.376;2022-09-12T09:40:41;3.75;;;2.50;;
39188;SDS011;24915;50.858;4.376;2022-09-12T09:45:47;2.63;;;2.20;;
39188;SDS011;24915;50.858;4.376;2022-09-12T09:48:18;3.85;;;2.20;;
39188;SDS011;24915;50.858;4.376;2022-09-12T09:50:50;4.03;;;2.00;;
39188;SDS011;24915;50.858;4.376;2022-09-12T09:56:14;4.78;;;2.38;;
39188;SDS011;24915;50.858;4.376;2022-09-12T10:04:23;3.75;;;2.03;;
39188;SDS011;24915;50.858;4.376;2022-09-12T10:06:51;4.00;;;1.92;;
39188;SDS011;24915;50.858;4.376;2022-09-12T10:09:22;5.05;;;1.90;;
39188;SDS011;24915;50.858;4.376;2022-09-12T10:11:54;6.88;;;2.15;;
39188;SDS011;24915;50.858;4.376;2022-09-12T10:14:42;4.05;;;2.05;;
39188;SDS011;24915;50.858;4.376;2022-09-12T10:19:47;3.45;;;1.80;;
39188;SDS011;24915;50.858;4.376;2022-09-12T10:22:17;6.35;;;1.80;;
39188;SDS011;24915;50.858;4.376;2022-09-12T10:24:51;2.40;;;1.70;;
39188;SDS011;24915;50.858;4.376;2022-09-12T10:27:38;8.77;;;2.20;;
39188;SDS011;24915;50.858;4.376;2022-09-12T10:30:14;3.58;;;1.85;;
39188;SDS011;24915;50.858;4.376;2022-09-12T10:32:45;4.63;;;1.92;;
39188;SDS011;24915;50.858;4.376;2022-09-12T10:37:50;5.70;;;2.08;;
39188;SDS011;24915;50.858;4.376;2022-09-12T10:40:23;2.65;;;1.80;;
39188;SDS011;24915;50.858;4.376;2022-09-12T10:42:52;4.55;;;2.15;;
39188;SDS011;24915;50.858;4.376;2022-09-12T10:48:01;3.85;;;2.00;;
39188;SDS011;24915;50.858;4.376;2022-09-12T10:50:46;2.78;;;1.70;;
39188;SDS011;24915;50.858;4.376;2022-09-12T10:53:13;3.58;;;1.67;;
39188;SDS011;24915;50.858;4.376;2022-09-12T10:56:04;5.40;;;1.63;;
39188;SDS011;24915;50.858;4.376;2022-09-12T11:01:13;2.55;;;1.33;;
39188;SDS011;24915;50.858;4.376;2022-09-12T11:03:52;3.05;;;1.73;;
39188;SDS011;24915;50.858;4.376;2022-09-12T11:06:22;2.13;;;1.63;;
39188;SDS011;24915;50.858;4.376;2022-09-12T11:09:00;3.55;;;2.67;;
39188;SDS011;24915;50.858;4.376;2022-09-12T11:11:44;4.55;;;1.70;;
39188;SDS011;24915;50.858;4.376;2022-09-12T11:15:02;2.42;;;1.67;;
39188;SDS011;24915;50.858;4.376;2022-09-12T11:17:17;2.95;;;1.70;;
39188;SDS011;24915;50.858;4.376;2022-09-12T11:22:57;4.78;;;2.17;;
39188;SDS011;24915;50.858;4.376;2022-09-12T11:33:32;6.57;;;1.80;;
39188;SDS011;24915;50.858;4.376;2022-09-12T11:36:06;2.72;;;1.70;;
39188;SDS011;24915;50.858;4.376;2022-09-12T11:41:21;3.47;;;3.00;;
39188;SDS011;24915;50.858;4.376;2022-09-12T11:44:02;3.42;;;2.42;;
39188;SDS011;24915;50.858;4.376;2022-09-12T11:46:41;4.65;;;2.20;;
39188;SDS011;24915;50.858;4.376;2022-09-12T11:59:45;6.63;;;1.80;;
39188;SDS011;24915;50.858;4.376;2022-09-12T12:02:20;3.60;;;1.60;;
39188;SDS011;24915;50.858;4.376;2022-09-12T12:07:58;4.30;;;1.65;;
39188;SDS011;24915;50.858;4.376;2022-09-12T12:13:02;3.72;;;1.75;;
39188;SDS011;24915;50.858;4.376;2022-09-12T12:15:33;6.88;;;1.88;;
39188;SDS011;24915;50.858;4.376;2022-09-12T12:18:05;6.25;;;1.90;;
39188;SDS011;24915;50.858;4.376;2022-09-12T12:20:39;1.98;;;1.33;;
39188;SDS011;24915;50.858;4.376;2022-09-12T12:23:05;2.80;;;1.63;;
39188;SDS011;24915;50.858;4.376;2022-09-12T12:25:59;3.03;;;2.00;;
39188;SDS011;24915;50.858;4.376;2022-09-12T12:31:14;1.67;;;1.27;;
39188;SDS011;24915;50.858;4.376;2022-09-12T12:36:29;5.75;;;1.58;;
39188;SDS011;24915;50.858;4.376;2022-09-12T12:38:58;3.63;;;1.40;;
39188;SDS011;24915;50.858;4.376;2022-09-12T12:43:50;1.20;;;1.10;;
39188;SDS011;24915;50.858;4.376;2022-09-12T12:46:17;2.30;;;1.08;;
39188;SDS011;24915;50.858;4.376;2022-09-12T12:57:02;2.38;;;1.30;;
39188;SDS011;24915;50.858;4.376;2022-09-12T12:59:45;3.30;;;1.17;;
39188;SDS011;24915;50.858;4.376;2022-09-12T13:02:21;4.50;;;1.50;;
39188;SDS011;24915;50.858;4.376;2022-09-12T13:04:51;3.40;;;1.40;;
39188;SDS011;24915;50.858;4.376;2022-09-12T13:07:22;4.93;;;1.42;;
39188;SDS011;24915;50.858;4.376;2022-09-12T13:09:53;2.13;;;1.38;;
39188;SDS011;24915;50.858;4.376;2022-09-12T13:12:27;1.60;;;1.20;;
39188;SDS011;24915;50.858;4.376;2022-09-12T13:18:03;1.77;;;1.05;;
39188;SDS011;24915;50.858;4.376;2022-09-12T13:20:36;3.53;;;1.20;;
39188;SDS011;24915;50.858;4.376;2022-09-12T13:23:30;1.48;;;0.90;;
39188;SDS011;24915;50.858;4.376;2022-09-12T13:25:57;1.13;;;0.95;;
39188;SDS011;24915;50.858;4.376;2022-09-12T13:28:25;5.20;;;1.20;;
39188;SDS011;24915;50.858;4.376;2022-09-12T13:30:59;1.48;;;1.10;;
39188;SDS011;24915;50.858;4.376;2022-09-12T13:33:41;2.17;;;2.03;;
39188;SDS011;24915;50.858;4.376;2022-09-12T13:41:39;2.15;;;1.25;;
39188;SDS011;24915;50.858;4.376;2022-09-12T13:44:30;2.17;;;1.25;;
39188;SDS011;24915;50.858;4.376;2022-09-12T13:47:06;2.35;;;1.40;;
39188;SDS011;24915;50.858;4.376;2022-09-12T13:49:40;2.45;;;0.90;;
39188;SDS011;24915;50.858;4.376;2022-09-12T13:52:08;2.45;;;1.00;;
39188;SDS011;24915;50.858;4.376;2022-09-12T13:54:51;1.25;;;0.93;;
39188;SDS011;24915;50.858;4.376;2022-09-12T13:57:35;0.75;;;0.75;;
39188;SDS011;24915;50.858;4.376;2022-09-12T14:00:24;1.67;;;1.13;;
39188;SDS011;24915;50.858;4.376;2022-09-12T14:02:48;1.55;;;1.10;;
39188;SDS011;24915;50.858;4.376;2022-09-12T14:05:34;3.78;;;1.08;;
39188;SDS011;24915;50.858;4.376;2022-09-12T14:08:04;2.10;;;1.17;;
39188;SDS011;24915;50.858;4.376;2022-09-12T14:10:39;2.35;;;1.00;;
39188;SDS011;24915;50.858;4.376;2022-09-12T14:13:11;1.92;;;1.20;;
39188;SDS011;24915;50.858;4.376;2022-09-12T14:15:49;2.08;;;0.98;;
39188;SDS011;24915;50.858;4.376;2022-09-12T14:18:23;7.38;;;1.35;;
39188;SDS011;24915;50.858;4.376;2022-09-12T14:20:54;2.95;;;2.50;;
39188;SDS011;24915;50.858;4.376;2022-09-12T14:23:31;3.85;;;1.50;;
39188;SDS011;24915;50.858;4.376;2022-09-12T14:25:59;2.33;;;1.10;;
39188;SDS011;24915;50.858;4.376;2022-09-12T14:28:27;1.25;;;0.90;;
39188;SDS011;24915;50.858;4.376;2022-09-12T14:33:26;4.22;;;0.85;;
39188;SDS011;24915;50.858;4.376;2022-09-12T14:36:06;3.85;;;1.13;;
39188;SDS011;24915;50.858;4.376;2022-09-12T14:38:44;1.77;;;0.90;;
39188;SDS011;24915;50.858;4.376;2022-09-12T14:41:13;3.58;;;1.15;;
39188;SDS011;24915;50.858;4.376;2022-09-12T14:43:57;1.35;;;1.10;;
39188;SDS011;24915;50.858;4.376;2022-09-12T14:49:05;1.05;;;0.95;;
39188;SDS011;24915;50.858;4.376;2022-09-12T14:51:55;3.47;;;1.45;;
39188;SDS011;24915;50.858;4.376;2022-09-12T14:56:55;1.13;;;1.00;;
39188;SDS011;24915;50.858;4.376;2022-09-12T15:00:03;2.28;;;1.38;;
39188;SDS011;24915;50.858;4.376;2022-09-12T15:05:20;1.23;;;1.13;;
39188;SDS011;24915;50.858;4.376;2022-09-12T15:07:44;3.30;;;0.90;;
39188;SDS011;24915;50.858;4.376;2022-09-12T15:10:19;5.35;;;1.13;;
39188;SDS011;24915;50.858;4.376;2022-09-12T15:15:33;1.60;;;1.50;;
39188;SDS011;24915;50.858;4.376;2022-09-12T15:18:00;2.60;;;1.30;;
39188;SDS011;24915;50.858;4.376;2022-09-12T15:20:26;2.83;;;1.65;;
39188;SDS011;24915;50.858;4.376;2022-09-12T15:22:54;3.25;;;1.50;;
39188;SDS011;24915;50.858;4.376;2022-09-12T15:25:21;2.15;;;1.10;;
39188;SDS011;24915;50.858;4.376;2022-09-12T15:27:47;2.05;;;0.85;;
39188;SDS011;24915;50.858;4.376;2022-09-12T15:30:16;3.08;;;1.50;;
39188;SDS011;24915;50.858;4.376;2022-09-12T15:32:41;5.28;;;1.23;;
39188;SDS011;24915;50.858;4.376;2022-09-12T15:37:45;3.70;;;1.38;;
39188;SDS011;24915;50.858;4.376;2022-09-12T15:40:11;2.45;;;1.10;;
39188;SDS011;24915;50.858;4.376;2022-09-12T15:42:37;1.08;;;0.90;;
39188;SDS011;24915;50.858;4.376;2022-09-12T15:45:16;3.28;;;1.50;;
39188;SDS011;24915;50.858;4.376;2022-09-12T15:47:44;2.30;;;2.10;;
39188;SDS011;24915;50.858;4.376;2022-09-12T15:50:10;4.63;;;1.38;;
39188;SDS011;24915;50.858;4.376;2022-09-12T15:52:36;2.53;;;1.30;;
39188;SDS011;24915;50.858;4.376;2022-09-12T15:55:02;2.35;;;1.20;;
39188;SDS011;24915;50.858;4.376;2022-09-12T15:57:29;1.17;;;1.08;;
39188;SDS011;24915;50.858;4.376;2022-09-12T15:59:55;1.65;;;1.13;;
39188;SDS011;24915;50.858;4.376;2022-09-12T16:02:20;2.35;;;1.00;;
39188;SDS011;24915;50.858;4.376;2022-09-12T16:04:46;2.05;;;1.75;;
39188;SDS011;24915;50.858;4.376;2022-09-12T16:07:12;3.67;;;1.95;;
39188;SDS011;24915;50.858;4.376;2022-09-12T16:09:38;1.92;;;1.40;;
39188;SDS011;24915;50.858;4.376;2022-09-12T16:12:04;3.33;;;1.30;;
39188;SDS011;24915;50.858;4.376;2022-09-12T16:14:30;1.40;;;1.30;;
39188;SDS011;24915;50.858;4.376;2022-09-12T16:16:56;1.50;;;1.20;;
39188;SDS011;24915;50.858;4.376;2022-09-12T16:19:22;2.35;;;1.40;;
39188;SDS011;24915;50.858;4.376;2022-09-12T16:21:48;1.70;;;1.08;;
39188;SDS011;24915;50.858;4.376;2022-09-12T16:24:14;2.00;;;1.30;;
39188;SDS011;24915;50.858;4.376;2022-09-12T16:26:40;2.65;;;1.13;;
39188;SDS011;24915;50.858;4.376;2022-09-12T16:29:06;2.97;;;0.95;;
39188;SDS011;24915;50.858;4.376;2022-09-12T16:31:32;4.28;;;1.00;;
39188;SDS011;24915;50.858;4.376;2022-09-12T16:33:58;1.95;;;1.20;;
39188;SDS011;24915;50.858;4.376;2022-09-12T16:36:24;2.40;;;1.30;;
39188;SDS011;24915;50.858;4.376;2022-09-12T16:38:50;2.90;;;1.77;;
39188;SDS011;24915;50.858;4.376;2022-09-12T16:41:18;0.98;;;0.98;;
39188;SDS011;24915;50.858;4.376;2022-09-12T16:43:45;3.55;;;1.10;;
39188;SDS011;24915;50.858;4.376;2022-09-12T16:46:12;3.17;;;1.50;;
39188;SDS011;24915;50.858;4.376;2022-09-12T16:48:47;1.73;;;1.10;;
39188;SDS011;24915;50.858;4.376;2022-09-12T16:51:15;1.65;;;1.30;;
39188;SDS011;24915;50.858;4.376;2022-09-12T16:53:42;1.92;;;1.80;;
39188;SDS011;24915;50.858;4.376;2022-09-12T16:56:08;2.35;;;1.58;;
39188;SDS011;24915;50.858;4.376;2022-09-12T16:58:35;5.03;;;2.13;;
39188;SDS011;24915;50.858;4.376;2022-09-12T17:01:02;2.33;;;1.60;;
39188;SDS011;24915;50.858;4.376;2022-09-12T17:03:30;3.33;;;1.45;;
39188;SDS011;24915;50.858;4.376;2022-09-12T17:05:57;4.85;;;2.20;;
39188;SDS011;24915;50.858;4.376;2022-09-12T17:08:34;2.88;;;2.13;;
39188;SDS011;24915;50.858;4.376;2022-09-12T17:11:02;3.28;;;2.00;;
39188;SDS011;24915;50.858;4.376;2022-09-12T17:13:36;5.55;;;2.05;;
39188;SDS011;24915;50.858;4.376;2022-09-12T17:16:06;4.95;;;1.70;;
39188;SDS011;24915;50.858;4.376;2022-09-12T17:18:35;3.22;;;1.60;;
39188;SDS011;24915;50.858;4.376;2022-09-12T17:21:05;4.78;;;1.55;;
39188;SDS011;24915;50.858;4.376;2022-09-12T17:23:31;2.30;;;1.80;;
39188;SDS011;24915;50.858;4.376;2022-09-12T17:25:57;1.80;;;1.70;;
39188;SDS011;24915;50.858;4.376;2022-09-12T17:28:23;3.80;;;1.52;;
39188;SDS011;24915;50.858;4.376;2022-09-12T17:30:53;10.07;;;1.65;;
39188;SDS011;24915;50.858;4.376;2022-09-12T17:33:27;1.75;;;1.40;;
39188;SDS011;24915;50.858;4.376;2022-09-12T17:35:53;1.98;;;1.23;;
39188;SDS011;24915;50.858;4.376;2022-09-12T17:38:19;2.72;;;1.88;;